Aviation Digital Data Service (ADDS)

Output produced by METARs form (0054 UTC 22 September 2017)
found at http://www.aviationweather.gov/adds/metars/
 
TAF AMD KIAB 212357Z 2123/2224 19015G25KT 9999 FEW120 QNH2976INS 
     BECMG 2202/2203 18010G15KT 9999 FEW100 QNH2978INS 
     BECMG 2214/2215 18012G18KT 9999 SCT030 QNH2988INS TX34/2221Z TN23/2212Z
       
KIAD 212328Z 2200/2306 33005KT P6SM SCT150 BKN250 
     FM220800 VRB03KT 5SM BR FEW250 
     FM221200 34004KT P6SM FEW040 SCT250
       
KIAG 212322Z 2200/2224 05009KT P6SM SKC 
     FM220400 VRB03KT P6SM SKC 
     FM221600 04004KT P6SM FEW250 
     FM222300 VRB03KT P6SM SKC
       
KIAH 212336Z 2200/2306 14008KT P6SM FEW050 BKN250 
     FM221100 10005KT 6SM BR SCT020 
     FM221500 14008KT P6SM SCT030 
     FM221900 14008KT P6SM VCSH BKN035 
     FM230200 11004KT P6SM SCT250
       
KICT 212320Z 2200/2224 17018G25KT P6SM FEW060 
     FM220800 17015KT P6SM SKC 
     FM221500 18017G24KT P6SM SCT060
       
KIDA 212332Z 2200/2224 VRB05KT P6SM -SHRA BKN010 OVC013 
     FM220400 VRB06KT 6SM -RA BR FEW007 BKN008 OVC011 
     FM220800 20011KT P6SM -SHRA FEW010 BKN015 OVC025 
     FM222000 22011G21KT P6SM FEW020 BKN040
       
KIFP 212320Z 2200/2224 20015G25KT P6SM FEW100 
     FM220200 27011KT P6SM SKC 
     FM220700 36010KT P6SM SKC 
     FM221900 VRB05KT P6SM SKC
       
KILG 212323Z 2200/2224 36004KT P6SM FEW060 BKN250 
     FM221500 35008KT P6SM BKN300
       
KILM 212336Z 2200/2224 04003KT P6SM VCSH SCT035 BKN090 
     FM220200 03002KT P6SM SCT120 BKN250 
     TEMPO 2208/2212 00000KT 2SM BR SCT010 
     FM221400 06005KT P6SM SCT050 
     FM222000 11008KT P6SM SKC
       
KILN 212339Z 2200/2224 VRB03KT P6SM SKC 
     FM220800 00000KT 4SM BR SKC 
     TEMPO 2210/2213 2SM BR 
     FM221400 07004KT P6SM SCT040 
     FM222300 00000KT P6SM SKC
       
KIND 212325Z 2200/2306 VRB03KT P6SM FEW250 
     FM221500 19005KT P6SM FEW040 
     FM222000 13004KT P6SM SCT045
       
TAF KINS 212303Z 2123/2305 19025G35KT 8000 BLDU FEW100 520009 QNH2958INS 
     TEMPO 2123/2124 21035G50KT 530009 
     BECMG 2201/2202 26015G25KT 9999 NSW SKC 520009 QNH2962INS 
     BECMG 2205/2206 31012G18KT 9999 SCT100 QNH2972INS 
     BECMG 2209/2210 03009KT 9999 FEW100 QNH2976INS 
     BECMG 2217/2218 VRB06KT 9999 FEW130 QNH2982INS TX24/2123Z TN10/2212Z
       
KINT 212320Z 2200/2224 04003KT P6SM FEW050 SCT250
       
KINW 212330Z 2200/2224 20020G30KT P6SM FEW170 
     FM220400 17015G25KT P6SM FEW170 
     FM221800 21022G32KT P6SM FEW060
       
KIPL 212329Z 2200/2224 27025G35KT 6SM BLDU SKC 
     TEMPO 2200/2202 3SM BLDU 
     FM220700 28014G24KT P6SM SKC 
     FM221200 28012KT P6SM SKC
       
KIPT 212358Z 2200/2224 VRB03KT P6SM SCT250 
     FM220930 VRB04KT 1SM BR VCFG BKN002 
     FM221300 30004KT P6SM SCT250
       
KISM 212320Z 2200/2224 06009KT P6SM FEW035 FEW070 SCT250 
     FM220200 03004KT P6SM FEW025 SCT250 
     FM221600 05008KT P6SM VCSH SCT035 
     FM221900 06011KT P6SM VCTS BKN040CB BKN070
       
KISN 212339Z 2200/2224 32007KT P6SM BKN110 
     FM220400 VRB03KT P6SM FEW120 BKN150 
     FM220800 02010KT P6SM BKN090 BKN120 
     FM221700 02013KT P6SM BKN070 BKN100
       
KISO 212358Z 2200/2224 25003KT P6SM SKC 
     FM220300 00000KT 3SM BR SKC 
     FM220600 00000KT 2SM BR SCT005 
     TEMPO 2208/2212 1SM BR BKN005 
     FM221300 VRB04KT P6SM SKC AMD LTD TO CLD VIS AND WIND
       
KISP 212332Z 2200/2224 36012KT P6SM SCT120 OVC250 
     FM220900 36012KT P6SM VCSH SCT040 BKN080 
     FM221300 36016G24KT P6SM SCT030 BKN080
       
KITH 212320Z 2200/2224 VRB03KT P6SM BKN250 
     FM220300 VRB03KT 4SM BR BKN250 
     FM220600 00000KT 2SM BR SCT002 
     TEMPO 2209/2213 1/2SM FG VV002 
     FM221500 33006KT P6SM SCT250
       
KIWA 212329Z 2200/2224 24014G24KT P6SM SKC 
     FM220400 25010KT P6SM SKC 
     FM221100 16007KT P6SM FEW250 
     FM221700 22010KT P6SM FEW120 SCT250 AMD LTD TO CLD VIS AND WIND 2203/2213
       
KIXD 212320Z 2200/2224 16010KT P6SM FEW200 
     FM221600 17013G23KT P6SM SCT060